sensor_id;sensor_type;location;lat;lon;timestamp;temperature;humidity
67862;DHT22;54665;51.462;6.698;2023-04-28T00:01:14;10.72;66.73
67862;DHT22;54665;51.462;6.698;2023-04-28T00:03:40;10.63;67.26
67862;DHT22;54665;51.462;6.698;2023-04-28T00:06:05;10.53;69.42
67862;DHT22;54665;51.462;6.698;2023-04-28T00:08:31;10.51;69.16
67862;DHT22;54665;51.462;6.698;2023-04-28T00:10:56;10.37;70.42
67862;DHT22;54665;51.462;6.698;2023-04-28T00:13:22;10.34;70.74
67862;DHT22;54665;51.462;6.698;2023-04-28T00:15:51;10.32;70.49
67862;DHT22;54665;51.462;6.698;2023-04-28T00:18:18;10.26;71.36
67862;DHT22;54665;51.462;6.698;2023-04-28T00:20:43;10.20;71.79
67862;DHT22;54665;51.462;6.698;2023-04-28T00:23:08;10.19;72.48
67862;DHT22;54665;51.462;6.698;2023-04-28T00:25:34;10.10;72.90
67862;DHT22;54665;51.462;6.698;2023-04-28T00:27:59;10.14;73.67
67862;DHT22;54665;51.462;6.698;2023-04-28T00:30:26;10.13;74.23
67862;DHT22;54665;51.462;6.698;2023-04-28T00:32:51;10.06;73.90
67862;DHT22;54665;51.462;6.698;2023-04-28T00:35:17;9.99;74.71
67862;DHT22;54665;51.462;6.698;2023-04-28T00:37:42;9.99;74.68
67862;DHT22;54665;51.462;6.698;2023-04-28T00:40:08;9.96;75.23
67862;DHT22;54665;51.462;6.698;2023-04-28T00:42:34;9.96;75.78
67862;DHT22;54665;51.462;6.698;2023-04-28T00:44:59;10.02;76.01
67862;DHT22;54665;51.462;6.698;2023-04-28T00:47:31;9.99;76.44
67862;DHT22;54665;51.462;6.698;2023-04-28T00:49:57;9.93;77.79
67862;DHT22;54665;51.462;6.698;2023-04-28T00:52:23;9.96;77.73
67862;DHT22;54665;51.462;6.698;2023-04-28T00:54:48;9.92;79.09
67862;DHT22;54665;51.462;6.698;2023-04-28T00:57:14;9.89;78.86
67862;DHT22;54665;51.462;6.698;2023-04-28T00:59:40;9.93;78.86
67862;DHT22;54665;51.462;6.698;2023-04-28T01:02:05;9.92;78.63
67862;DHT22;54665;51.462;6.698;2023-04-28T01:04:32;9.93;79.03
67862;DHT22;54665;51.462;6.698;2023-04-28T01:06:59;9.87;79.98
67862;DHT22;54665;51.462;6.698;2023-04-28T01:09:25;9.90;79.74
67862;DHT22;54665;51.462;6.698;2023-04-28T01:11:52;9.86;79.70
67862;DHT22;54665;51.462;6.698;2023-04-28T01:14:39;9.89;80.02
67862;DHT22;54665;51.462;6.698;2023-04-28T01:17:04;9.90;80.36
67862;DHT22;54665;51.462;6.698;2023-04-28T01:19:31;9.90;80.71
67862;DHT22;54665;51.462;6.698;2023-04-28T01:21:56;9.87;81.14
67862;DHT22;54665;51.462;6.698;2023-04-28T01:24:23;9.90;81.08
67862;DHT22;54665;51.462;6.698;2023-04-28T01:26:49;9.83;81.80
67862;DHT22;54665;51.462;6.698;2023-04-28T01:29:15;9.90;81.44
67862;DHT22;54665;51.462;6.698;2023-04-28T01:31:40;9.93;81.45
67862;DHT22;54665;51.462;6.698;2023-04-28T01:34:06;9.90;81.62
67862;DHT22;54665;51.462;6.698;2023-04-28T01:36:32;9.90;81.12
67862;DHT22;54665;51.462;6.698;2023-04-28T01:38:58;9.93;81.25
67862;DHT22;54665;51.462;6.698;2023-04-28T01:41:23;9.83;81.48
67862;DHT22;54665;51.462;6.698;2023-04-28T01:43:48;9.79;81.63
67862;DHT22;54665;51.462;6.698;2023-04-28T01:46:14;9.72;81.89
67862;DHT22;54665;51.462;6.698;2023-04-28T01:48:39;9.61;82.00
67862;DHT22;54665;51.462;6.698;2023-04-28T01:51:05;9.63;82.06
67862;DHT22;54665;51.462;6.698;2023-04-28T01:53:30;9.62;82.34
67862;DHT22;54665;51.462;6.698;2023-04-28T01:55:56;9.65;82.53
67862;DHT22;54665;51.462;6.698;2023-04-28T01:58:23;9.71;82.86
67862;DHT22;54665;51.462;6.698;2023-04-28T02:00:48;9.74;83.32
67862;DHT22;54665;51.462;6.698;2023-04-28T02:03:14;9.72;83.36
67862;DHT22;54665;51.462;6.698;2023-04-28T02:05:40;9.72;83.53
67862;DHT22;54665;51.462;6.698;2023-04-28T02:08:05;9.75;83.34
67862;DHT22;54665;51.462;6.698;2023-04-28T02:10:31;9.76;83.51
67862;DHT22;54665;51.462;6.698;2023-04-28T02:12:56;9.81;83.97
67862;DHT22;54665;51.462;6.698;2023-04-28T02:15:22;9.74;83.73
67862;DHT22;54665;51.462;6.698;2023-04-28T02:17:47;9.76;84.04
67862;DHT22;54665;51.462;6.698;2023-04-28T02:20:13;9.76;84.08
67862;DHT22;54665;51.462;6.698;2023-04-28T02:22:39;9.83;83.85
67862;DHT22;54665;51.462;6.698;2023-04-28T02:25:05;9.82;83.61
67862;DHT22;54665;51.462;6.698;2023-04-28T02:27:31;9.81;83.65
67862;DHT22;54665;51.462;6.698;2023-04-28T02:29:57;9.79;83.48
67862;DHT22;54665;51.462;6.698;2023-04-28T02:32:23;9.85;83.39
67862;DHT22;54665;51.462;6.698;2023-04-28T02:34:53;9.85;83.53
67862;DHT22;54665;51.462;6.698;2023-04-28T02:37:21;9.90;83.64
67862;DHT22;54665;51.462;6.698;2023-04-28T02:39:48;9.90;83.83
67862;DHT22;54665;51.462;6.698;2023-04-28T02:42:13;9.92;84.25
67862;DHT22;54665;51.462;6.698;2023-04-28T02:44:39;9.92;84.26
67862;DHT22;54665;51.462;6.698;2023-04-28T02:47:04;9.87;84.51
67862;DHT22;54665;51.462;6.698;2023-04-28T02:49:29;9.93;83.84
67862;DHT22;54665;51.462;6.698;2023-04-28T02:51:55;9.96;84.18
67862;DHT22;54665;51.462;6.698;2023-04-28T02:54:21;9.99;84.37
67862;DHT22;54665;51.462;6.698;2023-04-28T02:56:56;9.95;84.14
67862;DHT22;54665;51.462;6.698;2023-04-28T02:59:23;9.93;84.21
67862;DHT22;54665;51.462;6.698;2023-04-28T03:01:49;9.89;84.45
67862;DHT22;54665;51.462;6.698;2023-04-28T03:04:16;9.93;84.46
67862;DHT22;54665;51.462;6.698;2023-04-28T03:06:41;9.87;84.83
67862;DHT22;54665;51.462;6.698;2023-04-28T03:09:07;9.93;84.68
67862;DHT22;54665;51.462;6.698;2023-04-28T03:11:33;9.85;84.59
67862;DHT22;54665;51.462;6.698;2023-04-28T03:13:59;9.90;84.69
67862;DHT22;54665;51.462;6.698;2023-04-28T03:16:25;9.79;85.01
67862;DHT22;54665;51.462;6.698;2023-04-28T03:18:51;9.76;85.34
67862;DHT22;54665;51.462;6.698;2023-04-28T03:21:18;9.78;84.98
67862;DHT22;54665;51.462;6.698;2023-04-28T03:23:43;9.83;84.97
67862;DHT22;54665;51.462;6.698;2023-04-28T03:26:08;9.89;85.00
67862;DHT22;54665;51.462;6.698;2023-04-28T03:28:34;9.86;85.11
67862;DHT22;54665;51.462;6.698;2023-04-28T03:31:00;9.86;85.35
67862;DHT22;54665;51.462;6.698;2023-04-28T03:33:25;9.92;85.20
67862;DHT22;54665;51.462;6.698;2023-04-28T03:35:52;9.95;85.10
67862;DHT22;54665;51.462;6.698;2023-04-28T03:38:18;9.96;85.19
67862;DHT22;54665;51.462;6.698;2023-04-28T03:40:44;10.00;84.97
67862;DHT22;54665;51.462;6.698;2023-04-28T03:43:10;9.93;85.43
67862;DHT22;54665;51.462;6.698;2023-04-28T03:45:40;10.00;85.33
67862;DHT22;54665;51.462;6.698;2023-04-28T03:48:07;9.97;85.51
67862;DHT22;54665;51.462;6.698;2023-04-28T03:50:32;10.00;85.73
67862;DHT22;54665;51.462;6.698;2023-04-28T03:52:58;10.10;85.60
67862;DHT22;54665;51.462;6.698;2023-04-28T03:55:24;10.06;85.48
67862;DHT22;54665;51.462;6.698;2023-04-28T03:57:50;10.06;85.77
67862;DHT22;54665;51.462;6.698;2023-04-28T04:00:17;9.97;86.34
67862;DHT22;54665;51.462;6.698;2023-04-28T04:02:44;9.97;86.62
67862;DHT22;54665;51.462;6.698;2023-04-28T04:05:11;10.13;86.07
67862;DHT22;54665;51.462;6.698;2023-04-28T04:07:36;10.14;86.13
67862;DHT22;54665;51.462;6.698;2023-04-28T04:10:02;10.19;86.15
67862;DHT22;54665;51.462;6.698;2023-04-28T04:12:27;10.19;86.25
67862;DHT22;54665;51.462;6.698;2023-04-28T04:14:53;10.26;86.48
67862;DHT22;54665;51.462;6.698;2023-04-28T04:17:19;10.37;85.83
67862;DHT22;54665;51.462;6.698;2023-04-28T04:19:44;10.43;86.05
67862;DHT22;54665;51.462;6.698;2023-04-28T04:22:10;10.43;85.90
67862;DHT22;54665;51.462;6.698;2023-04-28T04:24:36;10.41;86.01
67862;DHT22;54665;51.462;6.698;2023-04-28T04:27:02;10.50;86.20
67862;DHT22;54665;51.462;6.698;2023-04-28T04:29:32;10.63;85.93
67862;DHT22;54665;51.462;6.698;2023-04-28T04:32:00;10.67;85.74
67862;DHT22;54665;51.462;6.698;2023-04-28T04:34:26;10.72;85.73
67862;DHT22;54665;51.462;6.698;2023-04-28T04:36:51;10.77;86.02
67862;DHT22;54665;51.462;6.698;2023-04-28T04:39:17;10.75;86.02
67862;DHT22;54665;51.462;6.698;2023-04-28T04:41:42;10.79;86.34
67862;DHT22;54665;51.462;6.698;2023-04-28T04:44:27;10.77;86.39
67862;DHT22;54665;51.462;6.698;2023-04-28T04:46:53;10.74;86.62
67862;DHT22;54665;51.462;6.698;2023-04-28T04:49:19;10.84;86.56
67862;DHT22;54665;51.462;6.698;2023-04-28T04:51:45;10.88;86.58
67862;DHT22;54665;51.462;6.698;2023-04-28T04:54:10;10.89;86.63
67862;DHT22;54665;51.462;6.698;2023-04-28T04:56:38;10.97;86.41
67862;DHT22;54665;51.462;6.698;2023-04-28T04:59:04;11.01;86.48
67862;DHT22;54665;51.462;6.698;2023-04-28T05:01:37;11.01;86.58
67862;DHT22;54665;51.462;6.698;2023-04-28T05:04:03;11.16;86.39
67862;DHT22;54665;51.462;6.698;2023-04-28T05:06:28;11.15;86.40
67862;DHT22;54665;51.462;6.698;2023-04-28T05:08:54;11.16;86.19
67862;DHT22;54665;51.462;6.698;2023-04-28T05:11:21;11.23;86.26
67862;DHT22;54665;51.462;6.698;2023-04-28T05:13:47;11.25;86.31
67862;DHT22;54665;51.462;6.698;2023-04-28T05:16:12;11.23;86.36
67862;DHT22;54665;51.462;6.698;2023-04-28T05:19:01;11.32;86.39
67862;DHT22;54665;51.462;6.698;2023-04-28T05:21:26;11.32;86.27
67862;DHT22;54665;51.462;6.698;2023-04-28T05:23:52;11.39;86.25
67862;DHT22;54665;51.462;6.698;2023-04-28T05:26:18;11.44;86.17
67862;DHT22;54665;51.462;6.698;2023-04-28T05:28:43;11.42;86.15
67862;DHT22;54665;51.462;6.698;2023-04-28T05:31:09;11.47;86.27
67862;DHT22;54665;51.462;6.698;2023-04-28T05:33:34;11.53;86.25
67862;DHT22;54665;51.462;6.698;2023-04-28T05:36:00;11.60;86.04
67862;DHT22;54665;51.462;6.698;2023-04-28T05:38:26;11.62;85.89
67862;DHT22;54665;51.462;6.698;2023-04-28T05:40:53;11.74;85.61
67862;DHT22;54665;51.462;6.698;2023-04-28T05:43:19;11.80;85.82
67862;DHT22;54665;51.462;6.698;2023-04-28T05:45:45;11.79;85.85
67862;DHT22;54665;51.462;6.698;2023-04-28T05:48:11;11.79;85.69
67862;DHT22;54665;51.462;6.698;2023-04-28T05:50:38;11.80;85.75
67862;DHT22;54665;51.462;6.698;2023-04-28T05:53:04;11.81;85.60
67862;DHT22;54665;51.462;6.698;2023-04-28T05:55:29;11.91;85.54
67862;DHT22;54665;51.462;6.698;2023-04-28T05:57:56;11.81;85.55
67862;DHT22;54665;51.462;6.698;2023-04-28T06:00:22;11.80;85.38
67862;DHT22;54665;51.462;6.698;2023-04-28T06:02:48;11.87;85.47
67862;DHT22;54665;51.462;6.698;2023-04-28T06:05:13;11.74;85.65
67862;DHT22;54665;51.462;6.698;2023-04-28T06:07:39;11.80;85.78
67862;DHT22;54665;51.462;6.698;2023-04-28T06:10:05;11.87;85.56
67862;DHT22;54665;51.462;6.698;2023-04-28T06:12:30;11.86;85.31
67862;DHT22;54665;51.462;6.698;2023-04-28T06:14:56;11.98;85.62
67862;DHT22;54665;51.462;6.698;2023-04-28T06:17:24;12.05;85.74
67862;DHT22;54665;51.462;6.698;2023-04-28T06:19:50;12.14;85.35
67862;DHT22;54665;51.462;6.698;2023-04-28T06:22:18;12.16;85.40
67862;DHT22;54665;51.462;6.698;2023-04-28T06:24:45;12.22;84.97
67862;DHT22;54665;51.462;6.698;2023-04-28T06:27:15;12.31;84.75
67862;DHT22;54665;51.462;6.698;2023-04-28T06:29:41;12.35;84.99
67862;DHT22;54665;51.462;6.698;2023-04-28T06:32:07;12.44;84.80
67862;DHT22;54665;51.462;6.698;2023-04-28T06:34:34;12.66;84.74
67862;DHT22;54665;51.462;6.698;2023-04-28T06:36:59;12.73;84.16
67862;DHT22;54665;51.462;6.698;2023-04-28T06:39:25;12.80;84.31
67862;DHT22;54665;51.462;6.698;2023-04-28T06:41:51;12.82;84.15
67862;DHT22;54665;51.462;6.698;2023-04-28T06:44:17;12.69;84.14
67862;DHT22;54665;51.462;6.698;2023-04-28T06:46:43;12.75;83.72
67862;DHT22;54665;51.462;6.698;2023-04-28T06:49:08;13.24;83.77
67862;DHT22;54665;51.462;6.698;2023-04-28T06:51:34;13.77;83.00
67862;DHT22;54665;51.462;6.698;2023-04-28T06:53:59;14.04;80.74
67862;DHT22;54665;51.462;6.698;2023-04-28T06:56:25;14.33;80.47
67862;DHT22;54665;51.462;6.698;2023-04-28T06:58:51;14.74;79.60
67862;DHT22;54665;51.462;6.698;2023-04-28T07:01:16;14.90;79.78
67862;DHT22;54665;51.462;6.698;2023-04-28T07:03:41;15.05;78.33
67862;DHT22;54665;51.462;6.698;2023-04-28T07:06:07;15.14;77.86
67862;DHT22;54665;51.462;6.698;2023-04-28T07:08:33;15.34;77.42
67862;DHT22;54665;51.462;6.698;2023-04-28T07:10:59;15.42;76.43
67862;DHT22;54665;51.462;6.698;2023-04-28T07:13:31;15.27;76.64
67862;DHT22;54665;51.462;6.698;2023-04-28T07:15:57;15.24;76.67
67862;DHT22;54665;51.462;6.698;2023-04-28T07:18:22;15.34;77.24
67862;DHT22;54665;51.462;6.698;2023-04-28T07:20:48;15.30;77.10
67862;DHT22;54665;51.462;6.698;2023-04-28T07:23:13;15.15;76.60
67862;DHT22;54665;51.462;6.698;2023-04-28T07:25:39;15.32;76.44
67862;DHT22;54665;51.462;6.698;2023-04-28T07:28:06;15.89;76.59
67862;DHT22;54665;51.462;6.698;2023-04-28T07:30:31;15.86;75.41
67862;DHT22;54665;51.462;6.698;2023-04-28T07:32:57;15.20;75.33
67862;DHT22;54665;51.462;6.698;2023-04-28T07:35:23;15.27;75.71
67862;DHT22;54665;51.462;6.698;2023-04-28T07:37:48;15.32;76.48
67862;DHT22;54665;51.462;6.698;2023-04-28T07:40:14;15.27;75.60
67862;DHT22;54665;51.462;6.698;2023-04-28T07:42:40;15.21;75.45
67862;DHT22;54665;51.462;6.698;2023-04-28T07:45:06;15.17;76.26
67862;DHT22;54665;51.462;6.698;2023-04-28T07:47:32;14.98;76.54
67862;DHT22;54665;51.462;6.698;2023-04-28T07:49:57;15.18;74.64
67862;DHT22;54665;51.462;6.698;2023-04-28T07:52:24;15.23;75.03
67862;DHT22;54665;51.462;6.698;2023-04-28T07:54:50;15.44;75.97
67862;DHT22;54665;51.462;6.698;2023-04-28T07:57:15;15.54;75.36
67862;DHT22;54665;51.462;6.698;2023-04-28T07:59:41;15.81;75.63
67862;DHT22;54665;51.462;6.698;2023-04-28T08:02:06;15.86;74.18
67862;DHT22;54665;51.462;6.698;2023-04-28T08:04:32;16.05;74.56
67862;DHT22;54665;51.462;6.698;2023-04-28T08:06:59;16.34;73.73
67862;DHT22;54665;51.462;6.698;2023-04-28T08:09:25;16.92;71.63
67862;DHT22;54665;51.462;6.698;2023-04-28T08:11:50;17.40;68.92
67862;DHT22;54665;51.462;6.698;2023-04-28T08:14:15;17.26;69.95
67862;DHT22;54665;51.462;6.698;2023-04-28T08:16:41;16.95;69.47
67862;DHT22;54665;51.462;6.698;2023-04-28T08:19:07;16.61;69.99
67862;DHT22;54665;51.462;6.698;2023-04-28T08:21:33;15.83;71.45
67862;DHT22;54665;51.462;6.698;2023-04-28T08:23:58;16.37;72.33
67862;DHT22;54665;51.462;6.698;2023-04-28T08:26:24;16.57;71.51
67862;DHT22;54665;51.462;6.698;2023-04-28T08:28:50;17.04;70.35
67862;DHT22;54665;51.462;6.698;2023-04-28T08:31:15;17.47;70.45
67862;DHT22;54665;51.462;6.698;2023-04-28T08:33:41;16.91;68.62
67862;DHT22;54665;51.462;6.698;2023-04-28T08:36:09;16.95;68.46
67862;DHT22;54665;51.462;6.698;2023-04-28T08:38:36;16.98;69.67
67862;DHT22;54665;51.462;6.698;2023-04-28T08:41:03;16.95;69.43
67862;DHT22;54665;51.462;6.698;2023-04-28T08:43:31;16.94;68.97
67862;DHT22;54665;51.462;6.698;2023-04-28T08:45:57;16.87;69.59
67862;DHT22;54665;51.462;6.698;2023-04-28T08:48:23;16.95;68.82
67862;DHT22;54665;51.462;6.698;2023-04-28T08:50:53;17.23;69.12
67862;DHT22;54665;51.462;6.698;2023-04-28T08:53:23;17.15;68.66
67862;DHT22;54665;51.462;6.698;2023-04-28T08:55:57;17.45;69.87
67862;DHT22;54665;51.462;6.698;2023-04-28T08:58:26;17.51;68.81
67862;DHT22;54665;51.462;6.698;2023-04-28T09:00:52;17.90;67.23
67862;DHT22;54665;51.462;6.698;2023-04-28T09:03:19;17.96;67.67
67862;DHT22;54665;51.462;6.698;2023-04-28T09:05:44;17.94;68.31
67862;DHT22;54665;51.462;6.698;2023-04-28T09:08:10;17.65;68.60
67862;DHT22;54665;51.462;6.698;2023-04-28T09:10:38;17.56;69.44
67862;DHT22;54665;51.462;6.698;2023-04-28T09:13:03;17.81;69.12
67862;DHT22;54665;51.462;6.698;2023-04-28T09:15:33;17.53;69.15
67862;DHT22;54665;51.462;6.698;2023-04-28T09:17:59;17.32;69.03
67862;DHT22;54665;51.462;6.698;2023-04-28T09:20:26;17.56;70.14
67862;DHT22;54665;51.462;6.698;2023-04-28T09:22:54;17.77;68.96
67862;DHT22;54665;51.462;6.698;2023-04-28T09:25:20;17.26;69.79
67862;DHT22;54665;51.462;6.698;2023-04-28T09:27:47;17.62;70.40
67862;DHT22;54665;51.462;6.698;2023-04-28T09:30:13;17.88;68.70
67862;DHT22;54665;51.462;6.698;2023-04-28T09:32:38;17.87;69.37
67862;DHT22;54665;51.462;6.698;2023-04-28T09:35:04;17.91;69.15
67862;DHT22;54665;51.462;6.698;2023-04-28T09:37:32;18.05;69.67
67862;DHT22;54665;51.462;6.698;2023-04-28T09:40:06;18.24;68.55
67862;DHT22;54665;51.462;6.698;2023-04-28T09:42:40;18.48;66.94
67862;DHT22;54665;51.462;6.698;2023-04-28T09:45:08;18.68;67.01
67862;DHT22;54665;51.462;6.698;2023-04-28T09:47:36;18.47;67.33
67862;DHT22;54665;51.462;6.698;2023-04-28T09:50:04;17.91;68.39
67862;DHT22;54665;51.462;6.698;2023-04-28T09:52:32;18.48;68.10
67862;DHT22;54665;51.462;6.698;2023-04-28T09:55:01;18.14;67.97
67862;DHT22;54665;51.462;6.698;2023-04-28T09:57:29;17.69;68.65
67862;DHT22;54665;51.462;6.698;2023-04-28T09:59:56;17.76;68.86
67862;DHT22;54665;51.462;6.698;2023-04-28T10:02:22;17.56;69.74
67862;DHT22;54665;51.462;6.698;2023-04-28T10:04:48;17.47;70.17
67862;DHT22;54665;51.462;6.698;2023-04-28T10:07:15;17.50;70.22
67862;DHT22;54665;51.462;6.698;2023-04-28T10:09:44;17.57;70.06
67862;DHT22;54665;51.462;6.698;2023-04-28T10:12:20;17.65;68.99
67862;DHT22;54665;51.462;6.698;2023-04-28T10:14:47;17.45;69.55
67862;DHT22;54665;51.462;6.698;2023-04-28T10:17:19;17.84;69.15
67862;DHT22;54665;51.462;6.698;2023-04-28T10:19:49;18.21;69.22
67862;DHT22;54665;51.462;6.698;2023-04-28T10:22:47;18.28;68.68
67862;DHT22;54665;51.462;6.698;2023-04-28T10:27:47;17.93;69.38
67862;DHT22;54665;51.462;6.698;2023-04-28T10:32:46;17.15;70.54
67862;DHT22;54665;51.462;6.698;2023-04-28T10:40:37;17.33;71.69
67862;DHT22;54665;51.462;6.698;2023-04-28T10:43:04;17.65;71.00
67862;DHT22;54665;51.462;6.698;2023-04-28T10:48:19;18.09;69.45
67862;DHT22;54665;51.462;6.698;2023-04-28T10:56:17;17.78;71.08
67862;DHT22;54665;51.462;6.698;2023-04-28T10:58:44;17.80;71.80
67862;DHT22;54665;51.462;6.698;2023-04-28T11:04:05;16.91;76.89
67862;DHT22;54665;51.462;6.698;2023-04-28T11:06:38;16.84;77.76
67862;DHT22;54665;51.462;6.698;2023-04-28T11:16:54;16.77;80.19
67862;DHT22;54665;51.462;6.698;2023-04-28T11:19:21;16.92;79.22
67862;DHT22;54665;51.462;6.698;2023-04-28T11:21:49;17.05;78.92
67862;DHT22;54665;51.462;6.698;2023-04-28T11:24:14;17.06;78.44
67862;DHT22;54665;51.462;6.698;2023-04-28T11:26:41;17.04;78.05
67862;DHT22;54665;51.462;6.698;2023-04-28T11:29:07;16.78;77.54
67862;DHT22;54665;51.462;6.698;2023-04-28T11:31:33;17.01;79.45
67862;DHT22;54665;51.462;6.698;2023-04-28T11:34:11;16.95;79.54
67862;DHT22;54665;51.462;6.698;2023-04-28T11:36:39;17.27;79.74
67862;DHT22;54665;51.462;6.698;2023-04-28T11:39:07;17.54;80.98
67862;DHT22;54665;51.462;6.698;2023-04-28T11:41:34;17.63;80.06
67862;DHT22;54665;51.462;6.698;2023-04-28T11:44:00;17.71;80.23
67862;DHT22;54665;51.462;6.698;2023-04-28T11:46:33;17.69;78.45
67862;DHT22;54665;51.462;6.698;2023-04-28T11:49:03;17.71;79.50
67862;DHT22;54665;51.462;6.698;2023-04-28T11:51:37;17.63;78.95
67862;DHT22;54665;51.462;6.698;2023-04-28T11:54:04;17.54;79.22
67862;DHT22;54665;51.462;6.698;2023-04-28T11:56:38;17.36;80.81
67862;DHT22;54665;51.462;6.698;2023-04-28T11:59:08;17.93;80.14
67862;DHT22;54665;51.462;6.698;2023-04-28T12:04:11;18.70;76.41
67862;DHT22;54665;51.462;6.698;2023-04-28T12:06:37;18.96;74.88
67862;DHT22;54665;51.462;6.698;2023-04-28T12:09:19;18.93;74.81
67862;DHT22;54665;51.462;6.698;2023-04-28T12:11:54;18.89;73.90
67862;DHT22;54665;51.462;6.698;2023-04-28T12:14:21;18.92;74.74
67862;DHT22;54665;51.462;6.698;2023-04-28T12:16:46;18.62;74.33
67862;DHT22;54665;51.462;6.698;2023-04-28T12:19:13;18.17;75.45
67862;DHT22;54665;51.462;6.698;2023-04-28T12:21:40;18.07;76.02
67862;DHT22;54665;51.462;6.698;2023-04-28T12:24:16;18.07;75.31
67862;DHT22;54665;51.462;6.698;2023-04-28T12:26:41;18.02;75.53
67862;DHT22;54665;51.462;6.698;2023-04-28T12:29:07;18.58;75.71
67862;DHT22;54665;51.462;6.698;2023-04-28T12:31:48;19.26;72.27
67862;DHT22;54665;51.462;6.698;2023-04-28T12:34:14;19.93;69.48
67862;DHT22;54665;51.462;6.698;2023-04-28T12:36:40;20.04;68.93
67862;DHT22;54665;51.462;6.698;2023-04-28T12:39:05;20.76;66.18
67862;DHT22;54665;51.462;6.698;2023-04-28T12:41:31;21.00;65.99
67862;DHT22;54665;51.462;6.698;2023-04-28T12:43:56;21.51;63.18
67862;DHT22;54665;51.462;6.698;2023-04-28T12:46:21;21.22;65.54
67862;DHT22;54665;51.462;6.698;2023-04-28T12:48:47;21.75;62.50
67862;DHT22;54665;51.462;6.698;2023-04-28T12:51:12;21.37;63.07
67862;DHT22;54665;51.462;6.698;2023-04-28T12:53:37;20.81;64.32
67862;DHT22;54665;51.462;6.698;2023-04-28T12:56:03;20.39;65.76
67862;DHT22;54665;51.462;6.698;2023-04-28T12:58:29;20.16;66.15
67862;DHT22;54665;51.462;6.698;2023-04-28T13:00:54;19.70;68.23
67862;DHT22;54665;51.462;6.698;2023-04-28T13:03:19;19.50;68.13
67862;DHT22;54665;51.462;6.698;2023-04-28T13:05:45;19.55;69.74
67862;DHT22;54665;51.462;6.698;2023-04-28T13:08:10;19.37;68.84
67862;DHT22;54665;51.462;6.698;2023-04-28T13:10:37;19.32;68.54
67862;DHT22;54665;51.462;6.698;2023-04-28T13:13:03;19.62;68.81
67862;DHT22;54665;51.462;6.698;2023-04-28T13:15:29;19.21;68.33
67862;DHT22;54665;51.462;6.698;2023-04-28T13:17:55;20.08;67.85
67862;DHT22;54665;51.462;6.698;2023-04-28T13:20:21;20.34;66.61
67862;DHT22;54665;51.462;6.698;2023-04-28T13:22:47;20.98;65.37
67862;DHT22;54665;51.462;6.698;2023-04-28T13:25:12;22.34;62.04
67862;DHT22;54665;51.462;6.698;2023-04-28T13:27:38;22.07;61.74
67862;DHT22;54665;51.462;6.698;2023-04-28T13:30:04;21.58;62.99
67862;DHT22;54665;51.462;6.698;2023-04-28T13:32:29;20.33;65.11
67862;DHT22;54665;51.462;6.698;2023-04-28T13:34:55;20.26;66.43
67862;DHT22;54665;51.462;6.698;2023-04-28T13:37:21;20.39;65.95
67862;DHT22;54665;51.462;6.698;2023-04-28T13:39:46;20.67;66.24
67862;DHT22;54665;51.462;6.698;2023-04-28T13:42:12;20.74;64.13
67862;DHT22;54665;51.462;6.698;2023-04-28T13:44:37;20.91;64.77
67862;DHT22;54665;51.462;6.698;2023-04-28T13:47:02;20.85;65.47
67862;DHT22;54665;51.462;6.698;2023-04-28T13:49:29;20.63;65.15
67862;DHT22;54665;51.462;6.698;2023-04-28T13:51:54;20.34;67.42
67862;DHT22;54665;51.462;6.698;2023-04-28T13:54:20;20.49;66.00
67862;DHT22;54665;51.462;6.698;2023-04-28T13:56:45;20.15;67.58
67862;DHT22;54665;51.462;6.698;2023-04-28T13:59:12;19.95;67.90
67862;DHT22;54665;51.462;6.698;2023-04-28T14:01:37;19.54;68.41
67862;DHT22;54665;51.462;6.698;2023-04-28T14:04:02;20.09;67.88
67862;DHT22;54665;51.462;6.698;2023-04-28T14:06:28;20.33;67.20
67862;DHT22;54665;51.462;6.698;2023-04-28T14:08:53;20.39;65.88
67862;DHT22;54665;51.462;6.698;2023-04-28T14:11:19;20.66;65.38
67862;DHT22;54665;51.462;6.698;2023-04-28T14:13:44;21.82;64.02
67862;DHT22;54665;51.462;6.698;2023-04-28T14:16:10;21.99;61.44
67862;DHT22;54665;51.462;6.698;2023-04-28T14:18:36;21.18;62.47
67862;DHT22;54665;51.462;6.698;2023-04-28T14:21:01;21.07;64.60
67862;DHT22;54665;51.462;6.698;2023-04-28T14:23:28;20.34;66.22
67862;DHT22;54665;51.462;6.698;2023-04-28T14:25:53;19.67;68.82
67862;DHT22;54665;51.462;6.698;2023-04-28T14:28:21;19.32;68.94
67862;DHT22;54665;51.462;6.698;2023-04-28T14:30:46;19.03;68.86
67862;DHT22;54665;51.462;6.698;2023-04-28T14:33:11;19.06;70.00
67862;DHT22;54665;51.462;6.698;2023-04-28T14:35:37;19.14;69.65
67862;DHT22;54665;51.462;6.698;2023-04-28T14:38:02;19.09;70.75
67862;DHT22;54665;51.462;6.698;2023-04-28T14:40:28;19.71;68.23
67862;DHT22;54665;51.462;6.698;2023-04-28T14:42:53;19.60;67.48
67862;DHT22;54665;51.462;6.698;2023-04-28T14:45:19;19.70;67.46
67862;DHT22;54665;51.462;6.698;2023-04-28T14:47:44;19.51;68.00
67862;DHT22;54665;51.462;6.698;2023-04-28T14:50:09;19.44;66.99
67862;DHT22;54665;51.462;6.698;2023-04-28T14:52:35;19.14;67.99
67862;DHT22;54665;51.462;6.698;2023-04-28T14:55:02;18.55;69.45
67862;DHT22;54665;51.462;6.698;2023-04-28T14:57:29;18.49;70.33
67862;DHT22;54665;51.462;6.698;2023-04-28T14:59:55;18.21;71.45
67862;DHT22;54665;51.462;6.698;2023-04-28T15:02:20;17.91;72.24
67862;DHT22;54665;51.462;6.698;2023-04-28T15:04:51;17.87;72.09
67862;DHT22;54665;51.462;6.698;2023-04-28T15:07:17;17.98;71.30
67862;DHT22;54665;51.462;6.698;2023-04-28T15:09:43;17.29;74.63
67862;DHT22;54665;51.462;6.698;2023-04-28T15:12:08;16.81;75.16
67862;DHT22;54665;51.462;6.698;2023-04-28T15:14:34;17.42;74.12
67862;DHT22;54665;51.462;6.698;2023-04-28T15:16:59;17.22;72.80
67862;DHT22;54665;51.462;6.698;2023-04-28T15:19:25;17.26;71.96
67862;DHT22;54665;51.462;6.698;2023-04-28T15:21:50;17.25;71.72
67862;DHT22;54665;51.462;6.698;2023-04-28T15:24:18;17.56;70.95
67862;DHT22;54665;51.462;6.698;2023-04-28T15:26:44;17.67;69.99
67862;DHT22;54665;51.462;6.698;2023-04-28T15:29:09;17.49;69.71
67862;DHT22;54665;51.462;6.698;2023-04-28T15:31:35;17.46;70.07
67862;DHT22;54665;51.462;6.698;2023-04-28T15:34:01;17.63;69.64
67862;DHT22;54665;51.462;6.698;2023-04-28T15:36:27;17.93;68.37
67862;DHT22;54665;51.462;6.698;2023-04-28T15:38:52;18.83;65.46
67862;DHT22;54665;51.462;6.698;2023-04-28T15:41:18;19.50;62.95
67862;DHT22;54665;51.462;6.698;2023-04-28T15:43:43;20.06;61.51
67862;DHT22;54665;51.462;6.698;2023-04-28T15:46:11;18.99;63.10
67862;DHT22;54665;51.462;6.698;2023-04-28T15:48:39;19.11;63.02
67862;DHT22;54665;51.462;6.698;2023-04-28T15:51:05;19.38;63.71
67862;DHT22;54665;51.462;6.698;2023-04-28T15:53:31;18.77;64.42
67862;DHT22;54665;51.462;6.698;2023-04-28T15:55:56;18.63;64.33
67862;DHT22;54665;51.462;6.698;2023-04-28T15:58:22;18.66;64.88
67862;DHT22;54665;51.462;6.698;2023-04-28T16:00:48;18.21;65.62
67862;DHT22;54665;51.462;6.698;2023-04-28T16:03:13;18.08;64.50